Time;durP1;ratioP1;P1;durP2;ratioP2;P2;SDS_P1;SDS_P2;PMS_P1;PMS_P2;Temp;Humidity;BMP_temperature;BMP_pressure;BME280_temperature;BME280_humidity;BME280_pressure;Samples;Min_cycle;Max_cycle;Signal;HPM_P1;HPM_P2
2021/01/19 00:01:34;;;;;;;165.45;104.17;;;;;;;-4.93;75.12;100440.82;125446;1127;25028;-77
2021/01/19 00:04:02;;;;;;;167.15;104.90;;;;;;;-4.92;75.13;100429.60;125454;1127;22542;-77
2021/01/19 00:06:30;;;;;;;172.53;107.15;;;;;;;-4.88;75.12;100431.13;125424;1126;22426;-77
2021/01/19 00:08:58;;;;;;;172.02;103.42;;;;;;;-4.85;75.30;100431.00;125391;1126;22734;-76
2021/01/19 00:11:26;;;;;;;172.43;106.90;;;;;;;-4.81;75.11;100435.11;125361;1128;22446;-78
2021/01/19 00:13:54;;;;;;;195.05;120.40;;;;;;;-4.78;75.51;100422.09;125401;1130;22541;-77
2021/01/19 00:16:22;;;;;;;178.07;113.83;;;;;;;-4.74;75.47;100426.19;125404;1130;22444;-79
2021/01/19 00:18:50;;;;;;;170.50;108.52;;;;;;;-4.66;75.58;100419.87;125394;1127;22463;-78
2021/01/19 00:21:18;;;;;;;165.70;107.25;;;;;;;-4.59;75.53;100431.58;125408;1127;22447;-78
2021/01/19 00:23:46;;;;;;;167.00;105.85;;;;;;;-4.55;75.47;100422.80;125424;1127;22441;-78
2021/01/19 00:26:15;;;;;;;157.80;99.80;;;;;;;-4.51;75.71;100419.16;125435;1127;22479;-78
2021/01/19 00:28:43;;;;;;;156.37;104.53;;;;;;;-4.48;75.65;100410.45;125380;1131;22444;-78
2021/01/19 00:31:11;;;;;;;154.57;100.25;;;;;;;-4.48;75.34;100408.72;125432;1130;22498;-78
2021/01/19 00:33:40;;;;;;;156.00;99.28;;;;;;;-4.46;75.44;100404.33;125465;1127;22558;-78
2021/01/19 00:36:08;;;;;;;152.27;97.90;;;;;;;-4.45;75.49;100397.43;125497;1131;22563;-78
2021/01/19 00:38:36;;;;;;;164.07;103.45;;;;;;;-4.44;75.53;100396.52;125405;1127;22395;-78
2021/01/19 00:41:05;;;;;;;153.57;99.62;;;;;;;-4.45;75.60;100398.26;125437;1127;24291;-78
2021/01/19 00:43:33;;;;;;;158.45;100.97;;;;;;;-4.46;75.67;100393.16;125445;1127;22443;-78
2021/01/19 00:46:01;;;;;;;162.00;104.23;;;;;;;-4.45;75.58;100395.68;125388;1131;22451;-77
2021/01/19 00:48:29;;;;;;;167.90;107.97;;;;;;;-4.42;75.92;100394.71;125392;1127;22455;-77
2021/01/19 00:50:57;;;;;;;163.55;102.35;;;;;;;-4.40;76.00;100398.86;125395;1127;22825;-77
2021/01/19 00:53:26;;;;;;;152.53;98.45;;;;;;;-4.38;76.05;100394.48;125369;1127;22512;-76
2021/01/19 00:55:55;;;;;;;161.60;98.33;;;;;;;-4.38;75.81;100391.91;125457;1127;22649;-76
2021/01/19 00:58:24;;;;;;;158.60;100.30;;;;;;;-4.35;75.99;100402.08;125388;1127;22445;-76
2021/01/19 01:00:52;;;;;;;151.47;95.97;;;;;;;-4.29;76.13;100395.81;125365;1129;22451;-76
2021/01/19 01:03:20;;;;;;;148.75;97.95;;;;;;;-4.24;76.21;100390.42;125469;1127;22443;-77
2021/01/19 01:05:49;;;;;;;151.18;97.80;;;;;;;-4.19;76.31;100389.30;125382;1127;24316;-77
2021/01/19 01:08:16;;;;;;;151.53;97.10;;;;;;;-4.15;76.15;100385.66;125407;1127;22511;-76
2021/01/19 01:10:45;;;;;;;154.07;103.35;;;;;;;-4.11;76.23;100386.34;125403;1127;22454;-76
2021/01/19 01:13:13;;;;;;;144.20;96.30;;;;;;;-4.07;76.31;100378.38;125380;1127;23320;-76
2021/01/19 01:15:41;;;;;;;150.63;99.93;;;;;;;-4.05;76.36;100370.58;125349;1129;22448;-79
2021/01/19 01:18:14;;;;;;;148.45;98.70;;;;;;;-4.00;76.32;100381.49;125394;1127;22449;-76
2021/01/19 01:20:43;;;;;;;156.85;104.17;;;;;;;-3.97;76.36;100355.55;125387;1126;24623;-76
2021/01/19 01:23:13;;;;;;;155.97;103.78;;;;;;;-3.93;76.17;100369.99;125509;1127;22451;-77
2021/01/19 01:25:44;;;;;;;152.30;96.82;;;;;;;-3.89;76.47;100366.34;125505;1130;22633;-77
2021/01/19 01:28:12;;;;;;;139.10;94.50;;;;;;;-3.82;76.17;100359.13;125424;1127;22444;-77
2021/01/19 01:30:40;;;;;;;144.55;96.60;;;;;;;-3.78;76.29;100355.48;125389;1130;22448;-76
2021/01/19 01:33:08;;;;;;;148.15;96.30;;;;;;;-3.74;76.53;100361.33;125348;1130;22440;-76
2021/01/19 01:35:36;;;;;;;140.62;94.87;;;;;;;-3.68;76.70;100358.44;125375;1127;23468;-76
2021/01/19 01:38:06;;;;;;;145.35;96.75;;;;;;;-3.65;76.68;100353.13;125445;1127;22517;-77
2021/01/19 01:40:35;;;;;;;142.10;97.88;;;;;;;-3.61;76.43;100345.13;125419;1127;22461;-76
2021/01/19 01:43:12;;;;;;;146.10;95.10;;;;;;;-3.60;76.17;100346.83;125347;1127;22561;-76
2021/01/19 01:45:41;;;;;;;146.30;95.80;;;;;;;-3.57;76.59;100340.64;125463;1127;22457;-78
2021/01/19 01:48:10;;;;;;;135.28;93.12;;;;;;;-3.55;76.47;100344.83;125399;1129;22807;-77
2021/01/19 01:50:40;;;;;;;144.20;96.57;;;;;;;-3.51;76.60;100331.77;125387;1130;22437;-77
2021/01/19 01:53:08;;;;;;;148.13;98.27;;;;;;;-3.45;76.61;100326.28;125390;1127;25048;-77
2021/01/19 01:55:37;;;;;;;146.30;97.00;;;;;;;-3.40;76.62;100325.14;125446;1126;22463;-77
2021/01/19 01:58:05;;;;;;;145.75;94.85;;;;;;;-3.36;76.36;100316.31;125428;1127;22790;-77
2021/01/19 02:00:33;;;;;;;136.90;94.27;;;;;;;-3.36;76.71;100311.15;125393;1130;22497;-77
2021/01/19 02:03:01;;;;;;;141.25;96.08;;;;;;;-3.33;76.73;100307.58;125373;1130;22438;-77
2021/01/19 02:05:30;;;;;;;134.75;95.10;;;;;;;-3.32;76.41;100307.48;125401;1127;22463;-77
2021/01/19 02:08:07;;;;;;;136.97;97.50;;;;;;;-3.32;76.71;100304.91;125418;1130;22450;-76
2021/01/19 02:10:46;;;;;;;147.22;103.60;;;;;;;-3.32;76.62;100304.91;125436;1130;22463;-76
2021/01/19 02:13:45;;;;;;;152.72;103.58;;;;;;;-3.31;76.33;100300.56;125415;1127;22899;-77
2021/01/19 02:16:32;;;;;;;137.80;93.22;;;;;;;-3.29;76.91;100303.91;125460;1126;22444;-76
2021/01/19 02:19:44;;;;;;;128.53;91.70;;;;;;;-3.32;76.66;100301.48;125402;1130;22771;-77
2021/01/19 02:23:04;;;;;;;135.90;93.20;;;;;;;-3.32;76.86;100307.48;125431;1127;22459;-76
2021/01/19 02:25:51;;;;;;;136.77;92.90;;;;;;;-3.31;77.17;100301.39;124963;1130;22454;-79
2021/01/19 02:28:37;;;;;;;130.97;88.45;;;;;;;-3.28;76.96;100294.41;124963;1130;22589;-76
2021/01/19 02:31:05;;;;;;;137.18;91.78;;;;;;;-3.22;77.49;100297.50;124978;1130;23380;-76
2021/01/19 02:34:23;;;;;;;140.88;94.28;;;;;;;-3.14;77.35;100294.50;124919;1130;22451;-75
2021/01/19 02:37:13;;;;;;;129.30;89.28;;;;;;;-3.05;77.13;100294.02;125001;1130;24558;-76
2021/01/19 02:40:09;;;;;;;139.22;92.90;;;;;;;-2.98;77.27;100294.52;124939;1130;22717;-76
2021/01/19 02:42:50;;;;;;;132.00;89.62;;;;;;;-2.90;77.36;100295.78;124967;1130;22493;-76
2021/01/19 02:45:19;;;;;;;115.63;83.93;;;;;;;-2.85;77.38;100285.19;124977;1130;22514;-76
2021/01/19 02:47:47;;;;;;;127.60;90.10;;;;;;;-2.79;77.12;100294.36;125014;1130;24242;-76
2021/01/19 02:50:15;;;;;;;123.70;86.28;;;;;;;-2.76;77.26;100286.44;125022;1130;22438;-77
2021/01/19 02:52:45;;;;;;;123.63;83.37;;;;;;;-2.70;77.17;100283.48;124954;1132;22494;-77
2021/01/19 02:55:14;;;;;;;126.58;91.32;;;;;;;-2.63;77.65;100284.84;124919;1130;22472;-76
2021/01/19 02:58:30;;;;;;;157.03;110.95;;;;;;;-2.58;77.54;100287.99;124918;1130;24558;-76
2021/01/19 03:01:08;;;;;;;131.32;87.88;;;;;;;-2.52;77.88;100287.66;124966;1130;25113;-76
2021/01/19 03:03:38;;;;;;;135.27;91.03;;;;;;;-2.45;77.62;100286.38;125419;1127;23308;-75
2021/01/19 03:06:15;;;;;;;125.90;89.03;;;;;;;-2.35;77.71;100288.46;125466;1127;22808;-76
2021/01/19 03:08:45;;;;;;;147.50;98.03;;;;;;;-2.28;77.59;100282.02;125345;1130;22442;-76
2021/01/19 03:11:17;;;;;;;122.00;83.55;;;;;;;-2.22;77.41;100281.67;125376;1127;23308;-76
2021/01/19 03:13:49;;;;;;;124.10;90.03;;;;;;;-2.16;77.59;100279.56;125386;1127;25799;-75
2021/01/19 03:16:19;;;;;;;;;;;;;;;-2.12;77.83;100281.97;125393;1127;22440;-77
2021/01/19 03:18:49;;;;;;;126.53;84.33;;;;;;;-2.12;77.79;100267.27;125480;1126;21818;-75
2021/01/19 03:21:18;;;;;;;128.87;93.17;;;;;;;-2.06;77.50;100277.28;125396;1127;22444;-75
2021/01/19 03:23:46;;;;;;;253.20;161.27;;;;;;;-1.99;78.06;100275.16;125428;1127;22493;-76
2021/01/19 03:26:14;;;;;;;218.05;150.82;;;;;;;-1.93;78.00;100283.41;125360;1127;22457;-76
2021/01/19 03:28:43;;;;;;;153.68;108.83;;;;;;;-1.85;78.02;100282.12;125390;1126;22442;-76
2021/01/19 03:31:11;;;;;;;133.72;90.67;;;;;;;-1.80;77.80;100280.08;125403;1127;22445;-76
2021/01/19 03:33:39;;;;;;;132.57;91.50;;;;;;;-1.75;78.29;100276.30;125438;1126;24565;-76
2021/01/19 03:36:07;;;;;;;118.35;89.17;;;;;;;-1.70;77.99;100276.02;125369;1126;22453;-76
2021/01/19 03:38:38;;;;;;;113.03;84.62;;;;;;;-1.67;77.65;100276.69;125397;1128;22535;-76
2021/01/19 03:41:06;;;;;;;150.90;101.10;;;;;;;-1.61;77.77;100282.41;125398;1127;22446;-76
2021/01/19 03:43:34;;;;;;;118.93;83.72;;;;;;;-1.57;77.88;100274.36;125372;1127;22445;-76
2021/01/19 03:46:02;;;;;;;129.93;91.92;;;;;;;-1.51;77.67;100283.53;125405;1126;22506;-76
2021/01/19 03:48:30;;;;;;;157.50;112.73;;;;;;;-1.48;77.41;100280.75;125339;1127;22475;-76
2021/01/19 03:50:59;;;;;;;128.10;88.87;;;;;;;-1.46;77.89;100284.92;125459;1127;22543;-76
2021/01/19 03:53:30;;;;;;;120.67;87.85;;;;;;;-1.42;77.43;100273.44;125379;1127;22444;-75
2021/01/19 03:55:58;;;;;;;122.05;85.77;;;;;;;-1.37;77.90;100277.51;125413;1127;22440;-75
2021/01/19 03:58:26;;;;;;;129.40;88.45;;;;;;;-1.31;77.86;100277.97;125407;1127;22445;-76
2021/01/19 04:00:54;;;;;;;113.75;79.50;;;;;;;-1.27;77.53;100276.02;125423;1127;22444;-75
2021/01/19 04:03:22;;;;;;;111.95;75.90;;;;;;;-1.23;77.78;100280.11;125386;1130;22494;-75
2021/01/19 04:05:50;;;;;;;92.30;69.12;;;;;;;-1.17;78.48;100274.52;125383;1127;22436;-75
2021/01/19 04:08:18;;;;;;;94.37;64.33;;;;;;;-1.11;77.95;100271.55;125358;1127;22494;-75
2021/01/19 04:10:48;;;;;;;74.82;57.75;;;;;;;-1.04;78.27;100261.63;125415;1130;23221;-75
2021/01/19 04:13:18;;;;;;;64.07;49.70;;;;;;;-0.98;77.96;100269.86;125413;1126;22440;-76
2021/01/19 04:15:47;;;;;;;55.33;44.83;;;;;;;-0.88;78.00;100274.48;125351;1127;22445;-76
2021/01/19 04:18:15;;;;;;;51.53;42.58;;;;;;;-0.79;79.01;100273.91;125487;1126;23381;-77
2021/01/19 04:20:43;;;;;;;47.93;40.15;;;;;;;-0.71;78.62;100277.66;125367;1126;22459;-77
2021/01/19 04:23:14;;;;;;;46.35;39.20;;;;;;;-0.62;79.14;100273.66;125426;1126;22444;-77
2021/01/19 04:25:48;;;;;;;53.40;42.03;;;;;;;-0.55;79.10;100269.73;125399;1130;22444;-77
2021/01/19 04:28:17;;;;;;;54.50;45.15;;;;;;;-0.48;78.95;100268.41;125395;1130;22445;-77
2021/01/19 04:30:47;;;;;;;64.35;54.18;;;;;;;-0.39;79.07;100260.97;125295;1127;22458;-77
2021/01/19 04:33:15;;;;;;;51.83;45.25;;;;;;;-0.32;78.90;100263.06;125406;1126;22440;-77
2021/01/19 04:35:46;;;;;;;47.10;40.75;;;;;;;-0.26;79.38;100257.47;125392;1127;22463;-76
2021/01/19 04:38:14;;;;;;;42.65;37.13;;;;;;;-0.19;79.15;100260.49;125380;1127;22437;-77
2021/01/19 04:40:42;;;;;;;39.53;35.05;;;;;;;-0.13;79.24;100267.06;125376;1126;24374;-76
2021/01/19 04:43:12;;;;;;;39.83;35.40;;;;;;;-0.08;79.56;100259.78;125366;1127;24307;-77
2021/01/19 04:45:43;;;;;;;38.88;34.90;;;;;;;-0.02;79.47;100259.38;125427;1126;22580;-76
2021/01/19 04:48:11;;;;;;;38.78;34.73;;;;;;;0.03;78.70;100265.08;125429;1126;24562;-76
2021/01/19 04:50:40;;;;;;;38.23;34.18;;;;;;;0.09;79.45;100264.67;125452;1126;24608;-77
2021/01/19 04:53:12;;;;;;;52.73;41.20;;;;;;;0.14;79.44;100267.81;125410;1127;24306;-78
2021/01/19 04:55:53;;;;;;;41.58;34.78;;;;;;;0.18;79.38;100266.66;125434;1126;22898;-77
2021/01/19 04:58:23;;;;;;;42.73;34.27;;;;;;;0.23;79.41;100263.73;125396;1127;22478;-77
2021/01/19 05:01:20;;;;;;;41.28;35.48;;;;;;;0.28;78.99;100264.27;125385;1130;22802;-77
2021/01/19 05:03:57;;;;;;;42.10;34.15;;;;;;;0.31;79.07;100266.66;125383;1127;22444;-76
2021/01/19 05:06:41;;;;;;;37.03;31.00;;;;;;;0.35;78.74;100259.49;125491;1126;24372;-76
2021/01/19 05:09:10;;;;;;;39.27;30.00;;;;;;;0.38;79.19;100254.09;125403;1130;22529;-77
2021/01/19 05:11:51;;;;;;;31.05;27.22;;;;;;;0.43;78.95;100250.25;125343;1127;25012;-77
2021/01/19 05:14:21;;;;;;;31.65;28.07;;;;;;;0.48;79.82;100246.49;125400;1127;22507;-77
2021/01/19 05:16:50;;;;;;;41.73;34.58;;;;;;;0.51;79.69;100243.69;125412;1126;24632;-77
2021/01/19 05:19:22;;;;;;;42.50;36.42;;;;;;;0.54;79.38;100253.87;125395;1126;22439;-78
2021/01/19 05:21:54;;;;;;;35.00;30.37;;;;;;;0.58;79.71;100255.31;125335;1127;22482;-77
2021/01/19 05:24:26;;;;;;;32.98;29.45;;;;;;;0.60;79.07;100251.68;125387;1130;22435;-77
2021/01/19 05:26:54;;;;;;;31.90;28.77;;;;;;;0.62;78.95;100254.98;125410;1127;22440;-77
2021/01/19 05:29:23;;;;;;;35.75;29.30;;;;;;;0.65;79.74;100254.78;125449;1130;22453;-77
2021/01/19 05:31:51;;;;;;;36.95;32.70;;;;;;;0.68;79.14;100257.16;125309;1127;22500;-76
2021/01/19 05:34:20;;;;;;;35.85;31.52;;;;;;;0.70;78.86;100257.08;125393;1127;22445;-77
2021/01/19 05:36:50;;;;;;;34.98;28.83;;;;;;;0.72;79.65;100255.18;125412;1126;24383;-77
2021/01/19 05:39:22;;;;;;;43.87;37.75;;;;;;;0.75;79.77;100257.57;125405;1129;22456;-76
2021/01/19 05:41:52;;;;;;;;;;;;;;;0.71;78.89;100256.12;125410;1128;22439;-77
2021/01/19 05:44:32;;;;;;;37.35;31.02;;;;;;;0.64;79.26;100260.09;125476;1126;21325;-76
2021/01/19 05:47:04;;;;;;;30.43;27.48;;;;;;;0.63;79.15;100253.21;125422;1126;22509;-76
2021/01/19 05:49:43;;;;;;;37.70;33.80;;;;;;;0.64;79.20;100247.92;125474;1126;22453;-77
2021/01/19 05:52:15;;;;;;;32.20;27.98;;;;;;;0.63;79.06;100256.67;125388;1127;24645;-77
2021/01/19 05:54:45;;;;;;;27.37;24.63;;;;;;;0.66;79.53;100255.60;125387;1126;25069;-77
2021/01/19 05:57:20;;;;;;;28.40;23.07;;;;;;;0.69;79.03;100252.80;125419;1127;22445;-77
2021/01/19 06:00:06;;;;;;;29.40;25.43;;;;;;;0.70;79.17;100250.10;125414;1126;22444;-77
2021/01/19 06:02:43;;;;;;;31.37;26.05;;;;;;;0.70;79.23;100251.88;125353;1128;22440;-77
2021/01/19 06:05:15;;;;;;;28.05;24.15;;;;;;;0.71;79.33;100256.12;125375;1127;22440;-77
2021/01/19 06:07:46;;;;;;;28.05;25.15;;;;;;;0.74;79.75;100255.92;125435;1127;22962;-77
2021/01/19 06:10:21;;;;;;;26.50;23.70;;;;;;;0.76;79.21;100256.63;125461;1127;22442;-76
2021/01/19 06:12:50;;;;;;;30.90;25.75;;;;;;;0.78;79.43;100261.73;125416;1126;24306;-77
2021/01/19 06:15:27;;;;;;;31.60;28.27;;;;;;;0.79;79.31;100250.38;125405;1127;22457;-76
2021/01/19 06:17:57;;;;;;;33.90;29.15;;;;;;;0.80;79.40;100252.03;125475;1127;22440;-77
2021/01/19 06:20:25;;;;;;;53.63;41.90;;;;;;;0.82;78.92;100250.17;125371;1126;24380;-77
2021/01/19 06:23:04;;;;;;;82.27;57.38;;;;;;;0.81;79.44;100248.52;125343;1127;22444;-77
2021/01/19 06:25:33;;;;;;;102.35;76.97;;;;;;;0.81;79.86;100244.14;125347;1129;22456;-77
2021/01/19 06:28:09;;;;;;;47.08;36.80;;;;;;;0.82;79.17;100245.80;125316;1131;22449;-76
2021/01/19 06:30:37;;;;;;;32.30;28.87;;;;;;;0.84;79.27;100254.33;125400;1129;22444;-77
2021/01/19 06:33:09;;;;;;;29.72;26.62;;;;;;;0.86;79.73;100254.20;125402;1127;22541;-77
2021/01/19 06:35:40;;;;;;;26.15;23.55;;;;;;;0.86;79.83;100246.41;125348;1130;23233;-76
2021/01/19 06:38:09;;;;;;;27.60;23.52;;;;;;;0.87;79.74;100242.89;125383;1126;22444;-76
2021/01/19 06:40:44;;;;;;;23.73;21.33;;;;;;;0.89;80.04;100239.22;125427;1126;22431;-79
2021/01/19 06:43:14;;;;;;;21.90;19.77;;;;;;;0.89;79.36;100254.82;125456;1127;22933;-80
2021/01/19 06:45:47;;;;;;;23.25;20.82;;;;;;;0.89;79.93;100240.99;125466;1127;22459;-79
2021/01/19 06:48:16;;;;;;;22.25;19.48;;;;;;;0.89;79.20;100240.99;125554;1127;22457;-78
2021/01/19 06:50:44;;;;;;;21.12;18.92;;;;;;;0.90;79.58;100243.50;125493;1129;22484;-79
2021/01/19 06:53:23;;;;;;;25.03;20.43;;;;;;;0.91;79.99;100246.92;125517;1126;24629;-79
2021/01/19 06:56:03;;;;;;;24.35;21.23;;;;;;;0.90;80.08;100240.90;125523;1127;24365;-79
2021/01/19 06:58:50;;;;;;;21.42;19.07;;;;;;;0.91;79.59;100241.73;125493;1127;22446;-79
2021/01/19 07:01:23;;;;;;;26.57;22.15;;;;;;;0.90;79.08;100246.10;125433;1127;22445;-79
2021/01/19 07:04:24;;;;;;;24.85;21.12;;;;;;;0.89;79.55;100239.22;125376;1130;22541;-78
2021/01/19 07:06:53;;;;;;;29.35;22.37;;;;;;;0.90;79.18;100243.50;125569;1126;22429;-83
2021/01/19 07:10:15;;;;;;;27.55;22.60;;;;;;;1.00;80.23;100242.83;126024;1126;22444;-78
2021/01/19 07:13:03;;;;;;;30.40;25.37;;;;;;;1.03;79.51;100250.41;124947;1130;24575;-77
2021/01/19 07:16:02;;;;;;;28.85;25.75;;;;;;;1.01;80.16;100242.73;124888;1130;24559;-76
2021/01/19 07:18:55;;;;;;;32.50;26.87;;;;;;;1.03;80.09;100248.64;124904;1130;22448;-76
2021/01/19 07:22:02;;;;;;;31.75;28.23;;;;;;;1.05;79.29;100243.34;124904;1130;23072;-76
2021/01/19 07:24:46;;;;;;;30.77;26.48;;;;;;;1.06;80.03;100243.22;124898;1130;22464;-76
2021/01/19 07:27:20;;;;;;;38.60;30.52;;;;;;;1.09;79.39;100236.97;124864;1132;22468;-76
2021/01/19 07:29:49;;;;;;;45.23;36.42;;;;;;;1.10;79.56;100243.83;124870;1133;22616;-76
2021/01/19 07:32:31;;;;;;;46.23;35.60;;;;;;;1.11;79.38;100237.70;124873;1130;22517;-76
2021/01/19 07:35:00;;;;;;;47.78;37.75;;;;;;;1.11;79.28;100248.94;124850;1130;22467;-75
2021/01/19 07:37:36;;;;;;;41.40;36.25;;;;;;;1.12;79.82;100242.78;124874;1130;22464;-77
2021/01/19 07:40:19;;;;;;;38.42;32.58;;;;;;;1.14;79.71;100251.33;124922;1130;24581;-75
2021/01/19 07:42:49;;;;;;;37.30;32.50;;;;;;;1.15;79.97;100252.16;124903;1134;22478;-75
2021/01/19 07:45:33;;;;;;;42.43;34.43;;;;;;;1.18;79.47;100246.73;124990;1130;22476;-78
2021/01/19 07:48:06;;;;;;;54.05;39.20;;;;;;;1.22;80.08;100249.94;124838;1130;22457;-75
2021/01/19 07:50:45;;;;;;;45.63;40.00;;;;;;;1.24;79.31;100251.50;125075;1130;23246;-77
2021/01/19 07:53:13;;;;;;;52.55;41.68;;;;;;;1.27;79.59;100240.05;125387;1127;22554;-75
2021/01/19 07:55:44;;;;;;;50.70;40.73;;;;;;;1.31;80.09;100244.91;125124;1127;24370;-75
2021/01/19 07:58:15;;;;;;;47.35;39.25;;;;;;;1.31;80.08;100257.09;125364;1127;24355;-75
2021/01/19 08:00:48;;;;;;;51.15;40.28;;;;;;;1.33;79.94;100256.05;125371;1128;22475;-76
2021/01/19 08:03:30;;;;;;;48.73;38.28;;;;;;;1.35;79.22;100250.72;125309;1130;22457;-76
2021/01/19 08:06:09;;;;;;;;;;;;;;;1.34;79.80;100255.09;125308;1129;22450;-75
2021/01/19 08:08:39;;;;;;;44.48;37.13;;;;;;;1.30;80.17;100250.20;125501;1127;21318;-76
2021/01/19 08:11:20;;;;;;;53.13;41.88;;;;;;;1.33;80.09;100249.98;125309;1127;24571;-77
2021/01/19 08:14:05;;;;;;;50.08;38.63;;;;;;;1.34;80.00;100249.06;125319;1129;22467;-75
2021/01/19 08:16:38;;;;;;;50.95;42.50;;;;;;;1.36;79.33;100252.38;125375;1129;22455;-75
2021/01/19 08:19:12;;;;;;;53.33;43.05;;;;;;;1.37;79.26;100252.27;125398;1129;22492;-75
2021/01/19 08:21:40;;;;;;;49.30;42.62;;;;;;;1.41;80.10;100253.70;125674;1127;22447;-76
2021/01/19 08:24:09;;;;;;;51.48;43.17;;;;;;;1.46;79.70;100255.96;125479;1126;24375;-76
2021/01/19 08:26:37;;;;;;;45.90;40.17;;;;;;;1.49;80.02;100250.53;125448;1126;24381;-76
2021/01/19 08:29:06;;;;;;;49.63;39.70;;;;;;;1.50;79.62;100254.82;125571;1127;22410;-75
2021/01/19 08:31:37;;;;;;;49.45;43.60;;;;;;;1.52;80.08;100254.70;125481;1130;23177;-76
2021/01/19 08:34:07;;;;;;;48.83;38.90;;;;;;;1.53;79.10;100253.75;125473;1127;24565;-76
2021/01/19 08:36:38;;;;;;;49.73;40.30;;;;;;;1.56;79.47;100261.33;125460;1126;22457;-76
2021/01/19 08:39:09;;;;;;;47.13;39.08;;;;;;;1.58;79.74;100260.28;125502;1126;22439;-75
2021/01/19 08:41:48;;;;;;;59.48;46.25;;;;;;;1.62;79.80;100255.68;125528;1127;22457;-75
2021/01/19 08:44:32;;;;;;;84.52;62.58;;;;;;;1.63;79.55;100259.94;125449;1129;22460;-75
2021/01/19 08:47:00;;;;;;;77.67;61.02;;;;;;;1.67;79.14;100255.33;125480;1126;24629;-74
2021/01/19 08:49:37;;;;;;;75.03;57.43;;;;;;;1.71;79.44;100252.41;125426;1129;22450;-75
2021/01/19 08:52:05;;;;;;;68.65;51.55;;;;;;;1.73;79.64;100258.31;125434;1128;22457;-75
2021/01/19 08:54:35;;;;;;;56.30;44.35;;;;;;;1.78;80.07;100263.20;125451;1127;22462;-75
2021/01/19 08:57:03;;;;;;;73.87;58.28;;;;;;;1.80;80.05;100253.48;125487;1126;22460;-75
2021/01/19 08:59:52;;;;;;;79.50;60.20;;;;;;;1.84;79.23;100254.94;125519;1127;22463;-75
2021/01/19 09:02:30;;;;;;;55.12;47.70;;;;;;;1.86;79.84;100251.25;125428;1127;22446;-75
2021/01/19 09:04:58;;;;;;;54.05;47.93;;;;;;;1.91;79.10;100255.31;125593;1128;22541;-75
2021/01/19 09:07:30;;;;;;;59.67;50.17;;;;;;;1.97;78.99;100252.25;125417;1126;22448;-75
2021/01/19 09:09:59;;;;;;;54.53;45.33;;;;;;;1.99;79.83;100253.77;125442;1130;22448;-73
2021/01/19 09:12:45;;;;;;;61.30;51.45;;;;;;;2.00;79.56;100255.45;125436;1126;24472;-73
2021/01/19 09:15:15;;;;;;;65.92;52.95;;;;;;;2.02;78.85;100253.55;125369;1127;22819;-74
2021/01/19 09:17:57;;;;;;;62.08;50.38;;;;;;;2.05;79.42;100257.70;125374;1127;22445;-74
2021/01/19 09:20:26;;;;;;;49.23;43.67;;;;;;;2.08;79.67;100257.48;125370;1127;22462;-76
2021/01/19 09:23:15;;;;;;;58.73;50.80;;;;;;;2.10;79.16;100258.20;125377;1127;22541;-74
2021/01/19 09:25:45;;;;;;;53.60;46.13;;;;;;;2.12;79.59;100251.91;125370;1127;22446;-76
2021/01/19 09:28:15;;;;;;;54.30;47.57;;;;;;;2.18;78.81;100250.63;125463;1126;22906;-74
2021/01/19 09:30:50;;;;;;;64.60;55.17;;;;;;;2.21;78.80;100239.97;125401;1126;24365;-78
2021/01/19 09:33:30;;;;;;;67.67;56.23;;;;;;;2.25;79.40;100241.38;125410;1129;22442;-77
2021/01/19 09:36:09;;;;;;;68.50;51.50;;;;;;;2.35;79.13;100233.69;125393;1128;22590;-75
2021/01/19 09:38:39;;;;;;;65.08;54.53;;;;;;;2.44;79.82;100227.78;125443;1127;22898;-75
2021/01/19 09:41:08;;;;;;;55.90;46.37;;;;;;;2.50;79.05;100223.84;125390;1129;23288;-77
2021/01/19 09:43:37;;;;;;;57.93;47.60;;;;;;;2.57;79.46;100222.45;125430;1127;22447;-79
2021/01/19 09:46:07;;;;;;;63.20;47.43;;;;;;;2.58;78.93;100224.92;125344;1127;25041;-76
2021/01/19 09:48:37;;;;;;;63.70;53.05;;;;;;;2.62;79.51;100215.08;125333;1127;23374;-74
2021/01/19 09:51:07;;;;;;;73.93;54.57;;;;;;;2.66;79.25;100211.27;125358;1127;24562;-72
2021/01/19 09:53:36;;;;;;;61.88;51.30;;;;;;;2.70;78.46;100201.42;125360;1127;22542;-75
2021/01/19 09:56:16;;;;;;;50.40;43.73;;;;;;;2.73;78.75;100196.83;125422;1126;24428;-76
2021/01/19 09:58:44;;;;;;;52.35;45.15;;;;;;;2.76;78.25;100193.12;125423;1127;24562;-77
2021/01/19 10:01:23;;;;;;;56.98;46.92;;;;;;;2.76;78.06;100193.12;125393;1127;22453;-77
2021/01/19 10:03:52;;;;;;;49.00;40.58;;;;;;;2.80;78.90;100197.17;125393;1127;23551;-75
2021/01/19 10:06:21;;;;;;;55.83;43.78;;;;;;;2.81;77.86;100189.20;125373;1127;22457;-76
2021/01/19 10:08:52;;;;;;;47.60;39.90;;;;;;;2.86;78.71;100182.78;125410;1129;22542;-76
2021/01/19 10:11:32;;;;;;;52.60;41.98;;;;;;;2.90;78.13;100185.05;125341;1127;22457;-75
2021/01/19 10:14:18;;;;;;;63.95;53.63;;;;;;;2.92;78.26;100179.69;125417;1127;22624;-75
2021/01/19 10:16:53;;;;;;;58.60;47.88;;;;;;;2.87;78.15;100177.47;125423;1127;22444;-76
2021/01/19 10:19:27;;;;;;;71.82;54.83;;;;;;;2.90;78.13;100186.80;125393;1126;23297;-76
2021/01/19 10:22:06;;;;;;;76.10;57.98;;;;;;;2.92;78.22;100185.73;125323;1127;22422;-76
2021/01/19 10:24:35;;;;;;;64.58;54.48;;;;;;;2.91;77.92;100188.48;125413;1127;22502;-75
2021/01/19 10:27:10;;;;;;;71.33;58.23;;;;;;;2.91;77.58;100188.48;125340;1127;22450;-76
2021/01/19 10:29:43;;;;;;;56.77;48.58;;;;;;;2.89;77.58;100182.55;125367;1127;22438;-76
2021/01/19 10:32:14;;;;;;;65.32;51.83;;;;;;;2.85;77.68;100170.70;125386;1127;22457;-76
2021/01/19 10:34:47;;;;;;;58.95;49.95;;;;;;;2.82;78.02;100175.20;125345;1127;23379;-75
2021/01/19 10:37:20;;;;;;;62.77;50.87;;;;;;;2.82;77.92;100171.77;125063;1127;24565;-76
2021/01/19 10:39:58;;;;;;;59.63;44.67;;;;;;;2.82;77.72;100184.81;125798;1127;22365;-75
2021/01/19 10:42:31;;;;;;;53.52;43.63;;;;;;;2.81;76.96;100170.13;125581;1127;22454;-75
2021/01/19 10:45:04;;;;;;;53.02;45.38;;;;;;;2.76;77.19;100175.69;125383;1127;22493;-76
2021/01/19 10:47:43;;;;;;;55.12;42.27;;;;;;;2.74;77.37;100166.34;125468;1129;22524;-75
2021/01/19 10:50:34;;;;;;;60.15;46.92;;;;;;;2.69;77.35;100168.48;125469;1130;22476;-76
2021/01/19 10:53:04;;;;;;;66.05;51.02;;;;;;;2.62;76.89;100162.92;125504;1127;22453;-77
2021/01/19 10:55:33;;;;;;;67.55;47.58;;;;;;;2.62;76.70;100157.70;125581;1127;23380;-76
2021/01/19 10:58:05;;;;;;;67.80;49.00;;;;;;;2.65;76.90;100162.67;125533;1127;24585;-76
2021/01/19 11:00:34;;;;;;;68.12;48.78;;;;;;;2.68;77.25;100159.83;125569;1127;22447;-76
2021/01/19 11:03:03;;;;;;;64.80;51.70;;;;;;;2.69;77.62;100158.05;125490;1127;22463;-76
2021/01/19 11:05:31;;;;;;;72.40;57.30;;;;;;;2.70;77.66;100149.26;125498;1127;24298;-76
2021/01/19 11:07:59;;;;;;;79.25;58.75;;;;;;;2.75;77.60;100144.52;125483;1127;22538;-76
2021/01/19 11:10:27;;;;;;;78.37;59.35;;;;;;;2.81;77.32;100138.81;125477;1127;25737;-76
2021/01/19 11:12:56;;;;;;;66.97;51.90;;;;;;;2.87;77.24;100137.50;125457;1127;22572;-76
2021/01/19 11:15:24;;;;;;;74.77;54.65;;;;;;;2.88;77.32;100126.11;125527;1127;22450;-76
2021/01/19 11:17:52;;;;;;;57.17;46.68;;;;;;;2.89;76.65;100114.70;125503;1127;24654;-76
2021/01/19 11:20:21;;;;;;;60.95;47.53;;;;;;;2.91;77.34;100113.64;125584;1127;22538;-76
2021/01/19 11:22:49;;;;;;;65.78;51.50;;;;;;;2.95;77.67;100107.21;125492;1127;24572;-76
2021/01/19 11:25:17;;;;;;;67.82;54.45;;;;;;;3.06;77.27;100101.11;125480;1126;23315;-76
2021/01/19 11:27:49;;;;;;;63.45;52.25;;;;;;;3.16;77.58;100101.19;125239;1127;24274;-76
2021/01/19 11:30:18;;;;;;;60.10;47.63;;;;;;;3.18;76.52;100091.45;125240;1129;22454;-76
2021/01/19 11:32:46;;;;;;;69.30;49.90;;;;;;;3.22;76.68;100083.23;125367;1127;22465;-76